Time;durP1;ratioP1;P1;durP2;ratioP2;P2;SDS_P1;SDS_P2;PMS_P1;PMS_P2;Temp;Humidity;BMP_temperature;BMP_pressure;BME280_temperature;BME280_humidity;BME280_pressure;Samples;Min_cycle;Max_cycle;Signal;HPM_P1;HPM_P2
2023/04/16 00:00:02;;;;;;;217.07;43.97;;;8.00;99.90;;;6.98;100.00;97236.97;5053777;28;20412;-77
2023/04/16 00:02:30;;;;;;;254.50;46.13;;;8.00;99.90;;;6.98;100.00;97250.13;5053679;28;20401;-77
2023/04/16 00:04:55;;;;;;;226.80;44.20;;;8.00;99.90;;;6.99;100.00;97254.34;5053715;28;20458;-77
2023/04/16 00:07:21;;;;;;;237.25;45.70;;;8.00;99.90;;;7.00;100.00;97250.69;5053677;28;20401;-77
2023/04/16 00:09:47;;;;;;;243.90;46.70;;;8.00;99.90;;;6.99;100.00;97251.72;5053806;28;20397;-76
2023/04/16 00:12:14;;;;;;;245.38;49.08;;;8.00;99.90;;;7.02;100.00;97252.28;5053988;28;20397;-77
2023/04/16 00:14:42;;;;;;;191.15;40.10;;;8.00;99.90;;;6.99;100.00;97253.56;5053512;28;20401;-77
2023/04/16 00:17:09;;;;;;;250.13;47.65;;;8.00;99.90;;;6.98;100.00;97252.78;5053588;28;20401;-77
2023/04/16 00:19:37;;;;;;;252.15;45.83;;;8.00;99.90;;;6.98;100.00;97251.97;5053359;28;20759;-77
2023/04/16 00:22:03;;;;;;;191.88;43.40;;;8.00;99.90;;;7.02;100.00;97252.28;5035455;28;20398;-77
2023/04/16 00:24:29;;;;;;;265.23;46.57;;;8.00;99.90;;;6.99;100.00;97256.22;5035025;28;21015;-76
2023/04/16 00:26:55;;;;;;;234.27;49.47;;;8.00;99.90;;;7.02;100.00;97260.19;5053400;28;20405;-77
2023/04/16 00:29:21;;;;;;;260.40;50.05;;;8.00;99.90;;;6.98;100.00;97259.88;5053255;28;20408;-76
2023/04/16 00:31:47;;;;;;;254.75;44.20;;;8.00;99.90;;;6.92;100.00;97252.88;5052428;28;20823;-77
2023/04/16 00:34:13;;;;;;;223.52;44.95;;;8.00;99.90;;;6.99;100.00;97259.59;5052949;28;20409;-77
2023/04/16 00:36:41;;;;;;;221.80;41.20;;;8.00;99.90;;;6.97;100.00;97261.69;5052889;28;20906;-77
2023/04/16 00:39:07;;;;;;;201.27;41.38;;;8.00;99.90;;;7.00;100.00;97269.09;5052969;28;20397;-76
2023/04/16 00:41:32;;;;;;;260.95;47.60;;;8.00;99.90;;;7.05;100.00;97262.38;5034933;28;20428;-77
2023/04/16 00:44:00;;;;;;;233.10;47.67;;;8.10;99.90;;;7.07;100.00;97265.56;5052716;28;20404;-76
2023/04/16 00:46:26;;;;;;;232.50;47.13;;;8.00;99.90;;;7.04;100.00;97260.75;5052628;28;20433;-76
2023/04/16 00:48:54;;;;;;;243.05;47.05;;;8.00;99.90;;;7.02;100.00;97258.34;5052674;28;20405;-77
2023/04/16 00:51:20;;;;;;;236.93;48.88;;;8.00;99.90;;;6.99;100.00;97259.59;5052427;28;20409;-77
2023/04/16 00:53:48;;;;;;;265.58;44.17;;;8.00;99.90;;;6.94;100.00;97258.72;5050896;28;20810;-76
2023/04/16 00:56:14;;;;;;;196.60;38.65;;;8.00;99.90;;;6.95;100.00;97255.06;5048894;28;20426;-76
2023/04/16 00:58:40;;;;;;;167.02;41.53;;;8.00;99.90;;;7.02;100.00;97265.44;5032433;28;20403;-76
2023/04/16 01:01:06;;;;;;;273.00;49.13;;;8.00;99.90;;;6.96;100.00;97260.09;5032321;28;20428;-76
2023/04/16 01:03:41;;;;;;;206.48;41.45;;;8.00;99.90;;;6.95;100.00;97265.56;5032258;28;20422;-76
2023/04/16 01:06:07;;;;;;;250.60;48.88;;;7.90;99.90;;;6.95;100.00;97266.38;5032490;28;20399;-76
2023/04/16 01:08:33;;;;;;;207.93;45.58;;;7.90;99.90;;;6.90;100.00;97260.22;5032276;28;20410;-76
2023/04/16 01:11:01;;;;;;;240.55;42.58;;;7.90;99.90;;;6.89;100.00;97266.50;5032204;28;20407;-77
2023/04/16 01:13:27;;;;;;;189.77;43.17;;;7.90;99.90;;;6.95;100.00;97268.22;5014363;28;20741;-76
2023/04/16 01:15:53;;;;;;;175.43;43.65;;;7.90;99.90;;;6.93;100.00;97263.16;5032044;28;20415;-76
2023/04/16 01:18:20;;;;;;;187.50;39.27;;;7.90;99.90;;;6.96;100.00;97265.34;5031749;28;20411;-76
2023/04/16 01:20:50;;;;;;;176.68;40.97;;;7.90;99.90;;;6.98;100.00;97268.56;5032093;28;20780;-76
2023/04/16 01:23:19;;;;;;;180.68;43.45;;;7.90;99.90;;;6.90;100.00;97271.53;5031926;28;20403;-77
2023/04/16 01:25:45;;;;;;;206.27;40.20;;;7.90;99.90;;;6.87;100.00;97268.56;5014300;28;20479;-77
2023/04/16 01:28:11;;;;;;;166.50;39.13;;;7.90;99.90;;;6.91;100.00;97275.78;5031948;28;20874;-76
2023/04/16 01:30:39;;;;;;;154.50;39.05;;;7.90;99.90;;;6.97;100.00;97268.78;5032727;28;20407;-77
2023/04/16 01:33:06;;;;;;;167.15;36.30;;;7.90;99.90;;;6.88;100.00;97272.78;5032138;28;20403;-76
2023/04/16 01:35:31;;;;;;;164.13;35.70;;;7.90;99.90;;;6.88;100.00;97275.41;5031893;28;20414;-77
2023/04/16 01:37:59;;;;;;;186.15;37.88;;;7.90;99.90;;;6.87;100.00;97273.81;5014385;28;20407;-77
2023/04/16 01:40:25;;;;;;;192.93;38.33;;;7.90;99.90;;;6.88;100.00;97270.16;5031222;28;20411;-77
2023/04/16 01:42:51;;;;;;;150.30;35.63;;;7.90;99.90;;;6.91;100.00;97274.97;5031419;28;20407;-77
2023/04/16 01:45:17;;;;;;;159.40;37.10;;;7.90;99.90;;;6.92;100.00;97284.44;5031790;28;20403;-76
2023/04/16 01:47:43;;;;;;;188.18;36.92;;;7.90;99.90;;;6.86;100.00;97277.47;5031603;28;20400;-76
2023/04/16 01:50:11;;;;;;;149.93;31.88;;;7.90;99.90;;;6.85;100.00;97281.13;5031444;28;21019;-76
2023/04/16 01:52:37;;;;;;;185.25;35.25;;;7.90;99.90;;;6.85;100.00;97278.50;5031580;28;20399;-76
2023/04/16 01:55:06;;;;;;;140.30;32.03;;;7.90;99.90;;;6.90;100.00;97281.25;5031384;28;20770;-77
2023/04/16 01:57:32;;;;;;;148.02;33.03;;;7.90;99.90;;;6.88;100.00;97284.13;5031391;28;20399;-76
2023/04/16 01:59:58;;;;;;;183.65;37.38;;;7.90;99.90;;;6.93;100.00;97278.16;5031152;28;20757;-76
2023/04/16 02:02:26;;;;;;;164.27;33.05;;;7.90;99.90;;;6.93;100.00;97280.78;5031204;28;20407;-76
2023/04/16 02:04:52;;;;;;;169.93;33.30;;;7.90;99.90;;;6.85;100.00;97271.41;5031058;28;20403;-77
2023/04/16 02:07:18;;;;;;;116.72;30.73;;;7.90;99.90;;;6.91;100.00;97275.78;5032879;28;20406;-77
2023/04/16 02:09:44;;;;;;;149.80;32.33;;;7.90;99.90;;;6.82;100.00;97277.16;5033241;28;20765;-76
2023/04/16 02:12:12;;;;;;;160.23;35.83;;;7.80;99.90;;;6.84;100.00;97282.19;5032964;28;20435;-76
2023/04/16 02:14:38;;;;;;;177.20;37.22;;;7.80;99.90;;;6.82;100.00;97285.03;5030958;28;20403;-76
2023/04/16 02:17:04;;;;;;;182.80;35.05;;;7.80;99.90;;;6.78;100.00;97275.19;5030808;28;20982;-76
2023/04/16 02:19:30;;;;;;;183.25;33.45;;;7.80;99.90;;;6.80;100.00;97287.09;5030877;28;20406;-76
2023/04/16 02:21:55;;;;;;;191.02;34.75;;;7.80;99.90;;;6.80;100.00;97278.41;5030926;28;20872;-76
2023/04/16 02:24:21;;;;;;;153.87;31.13;;;7.80;99.90;;;6.82;100.00;97277.16;5030806;28;20501;-77
2023/04/16 02:26:47;;;;;;;160.85;34.25;;;7.80;99.90;;;6.84;100.00;97280.31;5031113;28;20889;-77
2023/04/16 02:29:15;;;;;;;200.60;34.90;;;7.80;99.90;;;6.82;100.00;97277.16;5030856;28;20482;-76
2023/04/16 02:31:41;;;;;;;169.90;34.10;;;7.80;99.90;;;6.83;100.00;97293.75;5030195;28;20494;-78
2023/04/16 02:34:09;;;;;;;173.13;33.97;;;7.80;99.90;;;6.82;100.00;97286.88;5029963;28;20497;-77
2023/04/16 02:36:34;;;;;;;141.50;33.80;;;7.80;99.90;;;6.83;100.00;97285.84;5031093;28;20526;-77
2023/04/16 02:39:00;;;;;;;188.75;35.72;;;7.80;99.90;;;6.78;100.00;97281.25;5031232;28;20846;-77
2023/04/16 02:41:26;;;;;;;178.00;36.20;;;7.80;99.90;;;6.77;100.00;97284.09;5030822;28;20407;-77
2023/04/16 02:43:52;;;;;;;193.53;35.73;;;7.70;99.90;;;6.76;100.00;97283.34;5030866;28;20399;-77
2023/04/16 02:46:19;;;;;;;164.25;34.78;;;7.80;99.90;;;6.79;100.00;97290.75;5031424;28;20478;-77
2023/04/16 02:48:45;;;;;;;203.35;38.15;;;7.70;99.90;;;6.79;100.00;97276.78;5031525;28;20764;-77
2023/04/16 02:51:11;;;;;;;173.07;33.58;;;7.80;99.90;;;6.76;100.00;97285.16;5031199;28;20395;-77
2023/04/16 02:53:37;;;;;;;172.68;32.20;;;7.80;99.90;;;6.76;100.00;97285.97;5030929;28;20855;-77
2023/04/16 02:56:04;;;;;;;183.75;31.30;;;7.80;99.90;;;6.73;100.00;97294.28;5030691;28;20515;-77
2023/04/16 02:58:30;;;;;;;172.68;33.30;;;7.80;99.90;;;6.80;100.00;97296.81;5030472;28;20773;-77
2023/04/16 03:00:56;;;;;;;159.52;29.98;;;7.80;99.90;;;6.77;100.00;97295.44;5030585;28;20403;-77
2023/04/16 03:03:23;;;;;;;209.38;34.50;;;7.80;99.90;;;6.81;100.00;97295.78;5030445;28;20406;-77
2023/04/16 03:05:49;;;;;;;199.07;35.83;;;7.80;99.90;;;6.81;100.00;97296.59;5030511;28;20454;-77
2023/04/16 03:08:15;;;;;;;146.50;33.63;;;7.80;99.90;;;6.82;100.00;97292.94;5030756;28;20399;-77
2023/04/16 03:10:41;;;;;;;204.73;32.57;;;7.80;99.90;;;6.75;100.00;97300.13;5030590;28;20402;-77
2023/04/16 03:13:07;;;;;;;179.20;33.60;;;7.80;99.90;;;6.76;100.00;97298.31;5030737;28;20407;-77
2023/04/16 03:15:33;;;;;;;183.40;36.15;;;7.80;99.90;;;6.70;100.00;97301.84;5032035;28;20776;-77
2023/04/16 03:17:59;;;;;;;196.27;32.97;;;7.70;99.90;;;6.70;100.00;97305.25;5035288;28;20460;-77
2023/04/16 03:20:27;;;;;;;185.05;35.90;;;7.70;99.90;;;6.72;100.00;97299.78;5034370;28;20474;-77
2023/04/16 03:22:54;;;;;;;207.57;36.20;;;7.70;99.90;;;6.72;100.00;97300.59;5034613;28;20425;-77
2023/04/16 03:25:20;;;;;;;222.73;38.53;;;7.70;99.90;;;6.70;100.00;97302.63;5034597;28;20473;-77
2023/04/16 03:27:47;;;;;;;233.93;38.63;;;7.70;99.90;;;6.67;100.00;97304.94;5035226;28;20491;-77
2023/04/16 03:30:15;;;;;;;242.60;40.60;;;7.70;99.90;;;6.67;100.00;97300.47;5034988;28;20429;-77
2023/04/16 03:32:41;;;;;;;235.47;39.53;;;7.70;99.90;;;6.67;100.00;97303.09;5035146;28;20423;-78
2023/04/16 03:35:09;;;;;;;268.10;38.90;;;7.70;99.90;;;6.62;100.00;97302.97;5034996;28;20407;-77
2023/04/16 03:37:36;;;;;;;192.63;36.78;;;7.70;99.90;;;6.65;100.00;97309.63;5035171;28;20401;-77
2023/04/16 03:40:05;;;;;;;215.82;40.70;;;7.70;99.90;;;6.66;100.00;97306.75;5034504;28;20394;-77
2023/04/16 03:42:32;;;;;;;230.70;39.88;;;7.60;99.90;;;6.62;100.00;97305.59;5034744;28;20399;-77
2023/04/16 03:44:58;;;;;;;229.17;39.07;;;7.60;99.90;;;6.62;100.00;97316.13;5034693;28;20399;-77
2023/04/16 03:47:24;;;;;;;201.02;36.30;;;7.60;99.90;;;6.66;100.00;97316.47;5034985;28;20510;-77
2023/04/16 03:49:50;;;;;;;196.43;35.95;;;7.60;99.90;;;6.65;100.00;97317.50;5034781;28;20881;-77
2023/04/16 03:52:16;;;;;;;233.00;36.28;;;7.60;99.90;;;6.63;100.00;97316.94;5034579;28;20410;-77
2023/04/16 03:54:45;;;;;;;186.10;36.23;;;7.70;99.90;;;6.60;100.00;97316.38;5034832;28;20497;-77
2023/04/16 03:57:11;;;;;;;189.37;36.60;;;7.60;99.90;;;6.61;100.00;97315.31;5034566;28;20415;-77
2023/04/16 03:59:37;;;;;;;208.27;38.83;;;7.60;99.90;;;6.64;100.00;97321.16;5036941;28;20872;-77
2023/04/16 04:02:03;;;;;;;220.80;35.50;;;7.60;99.90;;;6.57;100.00;97321.28;5039967;28;20418;-77
2023/04/16 04:04:28;;;;;;;234.57;40.93;;;7.60;99.90;;;6.59;100.00;97321.84;5022048;28;20509;-77
2023/04/16 04:06:54;;;;;;;215.52;37.25;;;7.60;99.90;;;6.62;100.00;97324.00;5036365;28;20502;-77
2023/04/16 04:09:20;;;;;;;214.20;36.50;;;7.60;99.90;;;6.63;100.00;97327.44;5034626;28;20418;-77
2023/04/16 04:11:47;;;;;;;206.23;35.78;;;7.60;99.90;;;6.59;100.00;97325.28;5034438;28;20912;-77
2023/04/16 04:14:13;;;;;;;192.40;32.78;;;7.60;99.90;;;6.57;100.00;97323.91;5033927;28;20470;-77
2023/04/16 04:16:40;;;;;;;232.65;37.55;;;7.60;99.90;;;6.59;100.00;97329.75;5034516;28;20515;-77
2023/04/16 04:19:06;;;;;;;225.35;37.60;;;7.60;99.90;;;6.58;100.00;97331.56;5033542;28;20419;-78
2023/04/16 04:21:32;;;;;;;207.17;32.70;;;7.60;99.90;;;6.52;100.00;97326.41;5033925;28;20919;-77
2023/04/16 04:23:58;;;;;;;245.00;36.72;;;7.60;99.90;;;6.55;100.00;97339.09;5033894;28;20844;-77
2023/04/16 04:26:24;;;;;;;190.13;34.60;;;7.60;99.90;;;6.60;100.00;97332.16;5033598;28;20399;-77
2023/04/16 04:28:52;;;;;;;202.25;32.60;;;7.60;99.90;;;6.60;100.00;97341.88;5032780;28;20406;-77
2023/04/16 04:31:18;;;;;;;198.63;34.58;;;7.60;99.90;;;6.61;100.00;97333.72;5032590;28;20445;-77
2023/04/16 04:33:44;;;;;;;231.20;36.47;;;7.60;99.90;;;6.59;100.00;97335.81;5033477;28;20402;-77
2023/04/16 04:36:10;;;;;;;177.25;33.15;;;7.60;99.90;;;6.63;100.00;97343.22;5033997;28;20418;-77
2023/04/16 04:38:36;;;;;;;190.52;32.22;;;7.60;99.90;;;6.60;100.00;97341.88;5033855;28;20402;-77
2023/04/16 04:41:02;;;;;;;227.30;34.43;;;7.60;99.90;;;6.57;100.00;97347.56;5034017;28;20494;-77
2023/04/16 04:43:28;;;;;;;212.00;33.95;;;7.60;99.90;;;6.56;100.00;97345.97;5016243;28;20427;-77
2023/04/16 04:45:55;;;;;;;203.35;31.90;;;7.60;99.90;;;6.54;100.00;97343.56;5033841;28;20403;-77
2023/04/16 04:48:25;;;;;;;232.65;35.42;;;7.60;99.90;;;6.59;100.00;97346.31;5033291;28;20426;-78
2023/04/16 04:50:52;;;;;;;179.23;32.60;;;7.60;99.90;;;6.60;100.00;97350.56;5016663;28;20760;-77
2023/04/16 04:53:18;;;;;;;188.55;31.33;;;7.60;99.90;;;6.57;100.00;97364.16;5034063;28;20407;-78
2023/04/16 04:55:44;;;;;;;238.47;36.53;;;7.60;99.90;;;6.58;100.00;97352.59;5033711;28;20998;-77
2023/04/16 04:58:10;;;;;;;219.93;32.40;;;7.60;99.90;;;6.56;100.00;97364.38;5034136;28;20403;-77
2023/04/16 05:00:36;;;;;;;208.07;33.40;;;7.60;99.90;;;6.56;100.00;97361.75;5033694;28;20494;-77
2023/04/16 05:03:05;;;;;;;201.32;33.65;;;7.60;99.90;;;6.61;100.00;97362.66;5034575;28;20772;-77
2023/04/16 05:05:31;;;;;;;165.97;29.10;;;7.60;99.90;;;6.56;100.00;97365.16;5033909;28;20403;-77
2023/04/16 05:07:57;;;;;;;180.40;31.38;;;7.60;99.90;;;6.52;100.00;97374.56;5033448;28;20415;-77
2023/04/16 05:10:23;;;;;;;162.97;29.30;;;7.60;99.90;;;6.54;100.00;97377.75;5034094;28;20407;-77
2023/04/16 05:12:49;;;;;;;190.48;33.13;;;7.60;99.90;;;6.53;100.00;97380.63;5033916;28;20488;-77
2023/04/16 05:15:16;;;;;;;179.13;33.63;;;7.50;99.90;;;6.49;100.00;97382.06;5033630;28;20972;-77
2023/04/16 05:17:41;;;;;;;150.75;31.20;;;7.50;99.90;;;6.54;100.00;97390.88;5033552;28;20486;-77
2023/04/16 05:20:09;;;;;;;185.13;34.47;;;7.50;99.90;;;6.56;100.00;97388.03;5032478;28;20496;-77
2023/04/16 05:22:36;;;;;;;218.13;38.65;;;7.50;99.90;;;6.47;100.00;97398.06;5031940;28;20506;-77
2023/04/16 05:25:03;;;;;;;211.88;35.95;;;7.40;99.90;;;6.47;100.00;97405.97;5031798;28;20404;-77
2023/04/16 05:27:29;;;;;;;243.60;44.72;;;7.50;99.90;;;6.45;100.00;97400.16;5031960;28;20427;-77
2023/04/16 05:29:55;;;;;;;230.10;43.72;;;7.40;99.90;;;6.52;100.00;97400.84;5031596;28;20418;-76
2023/04/16 05:32:21;;;;;;;301.95;44.55;;;7.50;99.90;;;6.43;100.00;97402.19;5031868;28;20419;-77
2023/04/16 05:34:47;;;;;;;261.92;40.50;;;7.50;99.90;;;6.43;100.00;97410.06;5031665;28;20407;-77
2023/04/16 05:37:15;;;;;;;288.05;48.53;;;7.50;99.90;;;6.53;100.00;97404.28;5031593;28;20941;-77
2023/04/16 05:39:40;;;;;;;325.65;51.47;;;7.50;99.90;;;6.50;100.00;97405.53;5031197;28;20729;-77
2023/04/16 05:42:06;;;;;;;298.33;47.80;;;7.50;99.90;;;6.47;100.00;97411.22;5031580;28;20411;-77
2023/04/16 05:44:33;;;;;;;361.65;57.03;;;7.50;99.90;;;6.55;100.00;97410.09;5031514;28;20407;-76
2023/04/16 05:46:59;;;;;;;243.30;50.08;;;7.50;99.90;;;6.56;100.00;97414.34;5031225;28;20822;-76
2023/04/16 05:49:24;;;;;;;307.02;52.22;;;7.60;99.90;;;6.53;100.00;97420.88;5031510;28;20494;-77
2023/04/16 05:51:50;;;;;;;288.90;52.00;;;7.50;99.90;;;6.56;100.00;97424.84;5031496;28;20494;-76
2023/04/16 05:54:18;;;;;;;270.40;55.25;;;7.50;99.90;;;6.58;100.00;97423.63;5031139;28;20407;-76
2023/04/16 05:56:44;;;;;;;285.77;55.73;;;7.60;99.90;;;6.62;100.00;97423.94;5030705;28;20901;-77
2023/04/16 05:59:10;;;;;;;346.55;52.30;;;7.60;99.90;;;6.56;100.00;97428.28;5031402;28;20402;-77
2023/04/16 06:01:36;;;;;;;287.95;48.78;;;7.60;99.90;;;6.53;100.00;97422.69;5031159;28;20399;-77
2023/04/16 06:04:02;;;;;;;371.23;54.78;;;7.60;99.90;;;6.52;100.00;97428.97;5031095;28;20494;-77
2023/04/16 06:06:27;;;;;;;307.02;53.65;;;7.60;99.90;;;6.54;100.00;97437.44;5031114;28;20506;-77
2023/04/16 06:08:53;;;;;;;278.25;58.80;;;7.50;99.90;;;6.59;100.00;97430.47;5031294;28;20411;-77
2023/04/16 06:11:21;;;;;;;343.73;56.40;;;7.60;99.90;;;6.53;100.00;97428.75;5031089;28;20525;-76
2023/04/16 06:13:46;;;;;;;346.20;52.85;;;7.50;99.90;;;6.50;100.00;97437.06;5030148;28;20407;-77
2023/04/16 06:16:12;;;;;;;348.13;50.43;;;7.50;99.90;;;6.50;100.00;97431.81;5013260;28;20762;-77
2023/04/16 06:18:38;;;;;;;245.82;47.97;;;7.50;99.90;;;6.54;100.00;97440.84;5035753;28;20397;-76
2023/04/16 06:21:04;;;;;;;263.08;50.88;;;7.60;99.90;;;6.60;100.00;97429.47;5050692;28;20496;-76
2023/04/16 06:23:30;;;;;;;301.45;45.08;;;7.60;99.90;;;6.56;100.00;97438.00;5050691;28;20498;-76
2023/04/16 06:25:56;;;;;;;306.58;52.83;;;7.60;99.90;;;6.60;100.00;97439.19;5050820;28;20955;-76
2023/04/16 06:28:25;;;;;;;421.13;60.13;;;7.60;99.90;;;6.59;100.00;97434.94;5050809;28;20403;-76
2023/04/16 06:30:50;;;;;;;383.02;57.20;;;7.60;99.90;;;6.58;100.00;97439.41;5050293;28;20879;-76
2023/04/16 06:33:16;;;;;;;365.70;57.83;;;7.60;99.90;;;6.53;100.00;97444.53;5041882;28;20421;-76
2023/04/16 06:35:42;;;;;;;338.52;62.45;;;7.60;99.90;;;6.52;100.00;97442.94;5034998;28;20425;-76
2023/04/16 06:38:08;;;;;;;428.08;59.35;;;7.50;99.90;;;6.51;100.00;97438.69;5032676;28;20491;-77
2023/04/16 06:40:36;;;;;;;271.35;59.33;;;7.60;99.90;;;6.72;100.00;97445.25;5040132;28;20871;-77
2023/04/16 06:43:02;;;;;;;325.60;63.13;;;7.60;99.90;;;6.64;100.00;97442.16;5052425;28;20421;-77
2023/04/16 06:45:29;;;;;;;366.85;63.17;;;7.60;99.90;;;6.55;100.00;97449.53;5039173;28;20481;-75
2023/04/16 06:47:57;;;;;;;373.65;63.90;;;7.60;99.90;;;6.46;100.00;97449.09;5038582;28;20409;-78
2023/04/16 06:50:23;;;;;;;362.42;51.85;;;7.40;99.90;;;6.43;100.00;97449.50;5041173;28;20406;-78
2023/04/16 06:52:49;;;;;;;369.33;59.60;;;7.40;99.90;;;6.50;100.00;97458.13;5042997;28;20404;-77
2023/04/16 06:55:15;;;;;;;366.53;64.47;;;7.50;99.90;;;6.53;100.00;97455.06;5037025;28;20769;-77
2023/04/16 06:57:41;;;;;;;279.65;52.80;;;7.50;99.90;;;6.55;100.00;97460.88;5028835;28;20405;-77
2023/04/16 07:00:09;;;;;;;372.88;63.47;;;7.50;99.90;;;6.56;100.00;97453.78;5036176;28;20410;-77
2023/04/16 07:02:36;;;;;;;327.52;61.10;;;7.60;99.90;;;6.59;100.00;97461.25;5042643;28;20403;-77
2023/04/16 07:05:02;;;;;;;334.35;62.05;;;7.60;99.90;;;6.59;100.00;97451.53;5041157;28;20405;-77
2023/04/16 07:07:28;;;;;;;331.95;61.42;;;7.60;99.90;;;6.57;100.00;97463.28;5035310;28;20387;-77
2023/04/16 07:09:54;;;;;;;314.25;60.75;;;7.50;99.90;;;6.66;100.00;97461.94;5046361;28;20815;-77
2023/04/16 07:12:20;;;;;;;332.30;57.13;;;7.60;99.90;;;6.59;100.00;97466.50;5035777;28;20409;-77
2023/04/16 07:14:46;;;;;;;343.83;57.03;;;7.60;99.90;;;6.61;100.00;97462.59;5040729;28;20407;-77
2023/04/16 07:17:12;;;;;;;216.63;51.40;;;7.60;99.90;;;6.71;100.00;97469.16;5042639;28;20421;-76
2023/04/16 07:19:39;;;;;;;326.40;56.08;;;7.60;99.90;;;6.69;100.00;97458.06;5015777;28;20405;-77
2023/04/16 07:22:06;;;;;;;278.30;48.17;;;7.60;99.90;;;6.69;100.00;97460.72;5044070;28;20508;-79
2023/04/16 07:24:31;;;;;;;266.87;48.63;;;7.70;99.90;;;6.73;100.00;97470.53;5037806;28;20541;-78
2023/04/16 07:26:57;;;;;;;317.95;56.83;;;7.70;99.90;;;6.77;100.00;97473.50;5041918;28;20398;-77
2023/04/16 07:29:23;;;;;;;323.90;54.42;;;7.70;99.90;;;6.78;100.00;97477.75;5035104;28;20471;-77
2023/04/16 07:31:50;;;;;;;307.38;57.38;;;7.80;99.90;;;6.80;100.00;97475.72;5030133;28;20422;-76
2023/04/16 07:34:16;;;;;;;311.90;55.92;;;7.70;99.90;;;6.78;100.00;97470.66;5028028;28;20420;-77
2023/04/16 07:36:43;;;;;;;277.87;55.00;;;7.80;99.90;;;6.82;100.00;97477.09;5031643;28;20427;-78
2023/04/16 07:39:10;;;;;;;282.85;54.38;;;7.80;99.90;;;6.83;100.00;97481.34;5029249;28;20423;-77
2023/04/16 07:41:36;;;;;;;288.50;52.65;;;7.80;99.90;;;6.81;100.00;97480.75;5031767;28;20421;-77
2023/04/16 07:44:03;;;;;;;272.55;49.20;;;7.80;99.90;;;6.78;100.00;97483.00;5014751;28;20407;-78
2023/04/16 07:46:31;;;;;;;290.38;57.10;;;7.80;99.90;;;6.77;100.00;97486.66;5033658;28;20395;-78
2023/04/16 07:48:57;;;;;;;306.90;52.60;;;7.70;99.90;;;6.71;100.00;97487.56;5031299;28;20403;-78
2023/04/16 07:51:23;;;;;;;242.07;46.95;;;7.70;99.90;;;6.75;100.00;97492.19;5032936;28;20438;-76
2023/04/16 07:53:50;;;;;;;255.85;48.15;;;7.70;99.90;;;6.79;100.00;97492.50;5049516;28;20412;-76
2023/04/16 07:56:16;;;;;;;311.13;53.95;;;7.80;99.90;;;6.81;100.00;97495.72;5035019;28;20418;-75
2023/04/16 07:58:42;;;;;;;288.85;58.10;;;7.80;99.90;;;6.79;100.00;97497.78;5030820;28;20403;-75
2023/04/16 08:01:08;;;;;;;305.23;55.27;;;7.70;99.90;;;6.79;100.00;97495.94;5029104;28;20399;-77
2023/04/16 08:03:34;;;;;;;263.92;48.08;;;7.80;99.90;;;6.79;100.00;97503.03;5034391;28;20776;-76
2023/04/16 08:06:00;;;;;;;280.73;51.20;;;7.80;99.90;;;6.82;100.00;97502.59;5032026;28;20485;-76
2023/04/16 08:08:26;;;;;;;268.90;49.63;;;7.80;99.90;;;6.88;100.00;97505.13;5032427;28;20497;-76
2023/04/16 08:10:55;;;;;;;221.68;48.80;;;7.80;99.90;;;6.94;100.00;97506.88;5032394;28;20413;-76
2023/04/16 08:13:21;;;;;;;259.50;52.75;;;7.90;99.90;;;6.92;100.00;97502.84;5014170;28;20497;-77
2023/04/16 08:15:47;;;;;;;259.73;48.20;;;7.90;99.90;;;6.92;100.00;97514.16;5033000;28;20929;-76
2023/04/16 08:18:14;;;;;;;208.43;45.77;;;7.90;99.90;;;6.96;100.00;97509.28;5032906;28;20502;-76
2023/04/16 08:20:40;;;;;;;279.10;51.63;;;7.90;99.90;;;6.93;100.00;97514.97;5032457;28;20764;-76
2023/04/16 08:23:06;;;;;;;279.40;53.97;;;7.90;99.90;;;6.96;100.00;97517.16;5033164;28;20418;-75
2023/04/16 08:25:32;;;;;;;239.70;50.67;;;7.90;99.90;;;6.93;100.00;97520.25;5015326;28;20403;-74
2023/04/16 08:27:59;;;;;;;233.50;50.72;;;7.90;99.90;;;6.92;100.00;97524.69;5015292;28;20461;-74
2023/04/16 08:30:25;;;;;;;230.00;44.80;;;7.90;99.90;;;6.90;100.00;97531.22;5032875;28;20417;-76
2023/04/16 08:32:52;;;;;;;235.68;47.58;;;7.90;99.90;;;6.91;100.00;97535.47;5033044;28;20454;-75
2023/04/16 08:35:18;;;;;;;251.93;49.13;;;7.90;99.90;;;6.93;100.00;97536.84;5032703;28;20461;-77
2023/04/16 08:37:43;;;;;;;252.43;51.38;;;7.90;99.90;;;6.97;100.00;97531.94;5035677;28;20827;-75
2023/04/16 08:40:10;;;;;;;230.70;48.42;;;7.90;99.90;;;6.99;100.00;97537.78;5033966;28;20494;-77
2023/04/16 08:42:44;;;;;;;225.20;45.58;;;8.00;99.90;;;7.02;100.00;97541.78;5033013;28;20469;-77
2023/04/16 08:45:15;;;;;;;189.88;45.63;;;8.00;99.90;;;7.05;100.00;97539.53;5034288;28;20494;-77
2023/04/16 08:47:46;;;;;;;222.60;49.10;;;8.00;99.90;;;7.08;100.00;97546.94;5033698;28;20414;-77
2023/04/16 08:50:15;;;;;;;242.45;44.92;;;8.00;99.90;;;7.05;100.00;97546.59;5031258;28;20410;-76
2023/04/16 08:52:51;;;;;;;202.52;46.00;;;8.00;99.90;;;7.05;100.00;97547.41;5033282;28;20403;-77
2023/04/16 08:55:22;;;;;;;221.77;49.45;;;8.00;99.90;;;7.05;100.00;97544.78;5031921;28;20484;-76
2023/04/16 08:57:53;;;;;;;171.05;41.53;;;8.00;99.90;;;7.12;100.00;97552.59;5015035;28;20851;-77
2023/04/16 09:00:20;;;;;;;215.77;47.33;;;8.00;99.90;;;7.10;100.00;97554.63;5031794;28;20399;-77
2023/04/16 09:02:47;;;;;;;194.23;45.13;;;8.10;99.90;;;7.11;100.00;97556.25;5031795;28;20470;-77
2023/04/16 09:05:19;;;;;;;179.82;41.70;;;8.10;99.90;;;7.12;100.00;97561.28;5030310;28;20808;-77
2023/04/16 09:07:46;;;;;;;181.00;41.50;;;8.10;99.90;;;7.15;100.00;97546.84;5032287;28;20417;-77
2023/04/16 09:10:15;;;;;;;173.63;42.72;;;8.10;99.90;;;7.21;100.00;97557.31;5011285;28;20407;-78
2023/04/16 09:12:41;;;;;;;206.90;43.35;;;8.20;99.90;;;7.13;100.00;97557.63;5031882;28;20924;-78
2023/04/16 09:15:10;;;;;;;158.82;37.20;;;8.10;99.90;;;7.16;100.00;97562.44;5034024;28;20486;-78
2023/04/16 09:17:38;;;;;;;191.95;43.78;;;8.10;99.90;;;7.15;100.00;97565.28;5032930;28;20412;-77
2023/04/16 09:20:09;;;;;;;199.32;42.30;;;8.10;99.90;;;7.19;100.00;97569.88;5031154;28;20399;-78
2023/04/16 09:22:39;;;;;;;197.45;45.33;;;8.20;99.90;;;7.17;100.00;97569.31;5017416;28;20395;-80
2023/04/16 09:25:07;;;;;;;202.18;44.03;;;8.10;99.90;;;7.31;100.00;97567.28;5015149;28;20406;-77
2023/04/16 09:27:33;;;;;;;196.55;39.00;;;8.20;99.90;;;7.33;100.00;97571.28;5044219;28;20393;-78
2023/04/16 09:29:59;;;;;;;206.45;41.97;;;8.30;99.90;;;7.36;100.00;97562.94;5051718;28;20424;-77
2023/04/16 09:32:27;;;;;;;186.10;37.33;;;8.30;99.90;;;7.43;100.00;97564.69;5051746;28;20433;-77
2023/04/16 09:34:56;;;;;;;187.95;39.67;;;8.40;99.90;;;7.53;100.00;97568.34;5052062;28;20405;-76
2023/04/16 09:37:24;;;;;;;193.02;38.25;;;8.40;99.90;;;7.52;100.00;97571.22;5029522;28;20422;-76
2023/04/16 09:39:56;;;;;;;160.65;38.13;;;8.50;99.90;;;7.59;100.00;97569.28;5031499;28;20422;-77
2023/04/16 09:42:24;;;;;;;195.23;34.67;;;8.50;99.90;;;7.55;100.00;97576.03;5028405;28;20454;-78
2023/04/16 09:44:51;;;;;;;207.25;35.38;;;8.50;99.90;;;7.57;100.00;97577.41;5031533;28;20823;-78
2023/04/16 09:47:19;;;;;;;200.02;38.65;;;8.50;99.90;;;7.61;100.00;97581.19;5030061;28;20409;-77
2023/04/16 09:49:46;;;;;;;175.32;37.58;;;8.50;99.90;;;7.65;100.00;97577.09;5030625;28;20495;-77
2023/04/16 09:52:21;;;;;;;186.25;39.53;;;8.60;99.90;;;7.72;100.00;97583.03;5031048;28;20395;-78
2023/04/16 09:54:48;;;;;;;176.40;36.90;;;8.70;99.90;;;7.72;100.00;97577.78;5029713;28;20434;-77
2023/04/16 09:57:19;;;;;;;198.95;34.53;;;8.70;99.90;;;7.67;100.00;97590.00;5030346;28;20423;-76
2023/04/16 09:59:45;;;;;;;217.88;41.15;;;8.60;99.90;;;7.64;100.00;97590.47;5029943;28;20403;-74
2023/04/16 10:02:12;;;;;;;154.05;35.05;;;8.60;99.90;;;7.59;100.00;97593.00;5031846;28;20426;-77